sensor_id;sensor_type;location;lat;lon;timestamp;P1;durP1;ratioP1;P2;durP2;ratioP2
78308;SDS011;67566;42.022;21.356;2023-07-08T00:02:11;9.15;;;6.90;;
78308;SDS011;67566;42.022;21.356;2023-07-08T00:04:37;10.88;;;6.68;;
78308;SDS011;67566;42.022;21.356;2023-07-08T00:07:04;11.38;;;7.20;;
78308;SDS011;67566;42.022;21.356;2023-07-08T00:09:30;8.70;;;6.78;;
78308;SDS011;67566;42.022;21.356;2023-07-08T00:11:55;7.47;;;6.10;;
78308;SDS011;67566;42.022;21.356;2023-07-08T00:14:22;7.82;;;5.90;;
78308;SDS011;67566;42.022;21.356;2023-07-08T00:16:48;10.60;;;6.70;;
78308;SDS011;67566;42.022;21.356;2023-07-08T00:19:14;9.93;;;6.32;;
78308;SDS011;67566;42.022;21.356;2023-07-08T00:21:44;7.60;;;6.07;;
78308;SDS011;67566;42.022;21.356;2023-07-08T00:24:10;9.93;;;6.28;;
78308;SDS011;67566;42.022;21.356;2023-07-08T00:26:35;10.93;;;6.07;;
78308;SDS011;67566;42.022;21.356;2023-07-08T00:29:01;8.27;;;5.82;;
78308;SDS011;67566;42.022;21.356;2023-07-08T00:31:26;10.15;;;5.82;;
78308;SDS011;67566;42.022;21.356;2023-07-08T00:33:52;10.32;;;6.57;;
78308;SDS011;67566;42.022;21.356;2023-07-08T00:38:48;10.43;;;6.35;;
78308;SDS011;67566;42.022;21.356;2023-07-08T00:41:16;10.10;;;6.10;;
78308;SDS011;67566;42.022;21.356;2023-07-08T00:43:50;10.30;;;7.22;;
78308;SDS011;67566;42.022;21.356;2023-07-08T00:46:20;8.80;;;5.28;;
78308;SDS011;67566;42.022;21.356;2023-07-08T00:49:07;8.30;;;6.28;;
78308;SDS011;67566;42.022;21.356;2023-07-08T00:51:49;11.02;;;6.28;;
78308;SDS011;67566;42.022;21.356;2023-07-08T00:54:16;10.52;;;6.35;;
78308;SDS011;67566;42.022;21.356;2023-07-08T00:59:15;9.65;;;6.63;;
78308;SDS011;67566;42.022;21.356;2023-07-08T01:01:46;9.55;;;6.78;;
78308;SDS011;67566;42.022;21.356;2023-07-08T01:04:35;9.00;;;6.50;;
78308;SDS011;67566;42.022;21.356;2023-07-08T01:07:22;11.52;;;6.28;;
78308;SDS011;67566;42.022;21.356;2023-07-08T01:09:57;13.02;;;7.30;;
78308;SDS011;67566;42.022;21.356;2023-07-08T01:12:29;10.55;;;7.22;;
78308;SDS011;67566;42.022;21.356;2023-07-08T01:14:59;10.98;;;6.95;;
78308;SDS011;67566;42.022;21.356;2023-07-08T01:17:27;10.63;;;7.30;;
78308;SDS011;67566;42.022;21.356;2023-07-08T01:19:57;11.13;;;7.03;;
78308;SDS011;67566;42.022;21.356;2023-07-08T01:22:30;8.95;;;6.30;;
78308;SDS011;67566;42.022;21.356;2023-07-08T01:24:57;13.23;;;7.20;;
78308;SDS011;67566;42.022;21.356;2023-07-08T01:27:28;10.85;;;7.65;;
78308;SDS011;67566;42.022;21.356;2023-07-08T01:29:57;11.90;;;7.75;;
78308;SDS011;67566;42.022;21.356;2023-07-08T01:32:23;12.98;;;7.72;;
78308;SDS011;67566;42.022;21.356;2023-07-08T01:34:49;8.55;;;5.95;;
78308;SDS011;67566;42.022;21.356;2023-07-08T01:37:29;13.98;;;8.68;;
78308;SDS011;67566;42.022;21.356;2023-07-08T01:42:49;9.70;;;7.78;;
78308;SDS011;67566;42.022;21.356;2023-07-08T01:45:16;10.90;;;8.73;;
78308;SDS011;67566;42.022;21.356;2023-07-08T01:47:53;15.40;;;8.27;;
78308;SDS011;67566;42.022;21.356;2023-07-08T01:50:22;10.73;;;8.02;;
78308;SDS011;67566;42.022;21.356;2023-07-08T01:52:50;11.27;;;7.95;;
78308;SDS011;67566;42.022;21.356;2023-07-08T01:55:21;11.25;;;7.95;;
78308;SDS011;67566;42.022;21.356;2023-07-08T01:57:51;10.57;;;8.00;;
78308;SDS011;67566;42.022;21.356;2023-07-08T02:00:18;11.52;;;8.23;;
78308;SDS011;67566;42.022;21.356;2023-07-08T02:02:44;12.07;;;7.68;;
78308;SDS011;67566;42.022;21.356;2023-07-08T02:05:10;11.73;;;7.82;;
78308;SDS011;67566;42.022;21.356;2023-07-08T02:07:35;10.43;;;8.00;;
78308;SDS011;67566;42.022;21.356;2023-07-08T02:10:01;10.45;;;7.60;;
78308;SDS011;67566;42.022;21.356;2023-07-08T02:12:26;9.02;;;7.50;;
78308;SDS011;67566;42.022;21.356;2023-07-08T02:14:52;12.05;;;7.78;;
78308;SDS011;67566;42.022;21.356;2023-07-08T02:17:17;11.45;;;7.55;;
78308;SDS011;67566;42.022;21.356;2023-07-08T02:19:43;10.05;;;7.13;;
78308;SDS011;67566;42.022;21.356;2023-07-08T02:22:09;13.55;;;7.95;;
78308;SDS011;67566;42.022;21.356;2023-07-08T02:24:35;12.05;;;7.95;;
78308;SDS011;67566;42.022;21.356;2023-07-08T02:27:00;9.15;;;6.95;;
78308;SDS011;67566;42.022;21.356;2023-07-08T02:29:26;12.25;;;7.88;;
78308;SDS011;67566;42.022;21.356;2023-07-08T02:31:52;11.77;;;7.13;;
78308;SDS011;67566;42.022;21.356;2023-07-08T02:34:17;10.13;;;7.65;;
78308;SDS011;67566;42.022;21.356;2023-07-08T02:36:43;11.25;;;7.60;;
78308;SDS011;67566;42.022;21.356;2023-07-08T02:39:09;10.48;;;7.03;;
78308;SDS011;67566;42.022;21.356;2023-07-08T02:41:35;9.50;;;6.80;;
78308;SDS011;67566;42.022;21.356;2023-07-08T02:44:00;9.15;;;6.90;;
78308;SDS011;67566;42.022;21.356;2023-07-08T02:46:26;7.53;;;5.75;;
78308;SDS011;67566;42.022;21.356;2023-07-08T02:48:51;10.40;;;5.93;;
78308;SDS011;67566;42.022;21.356;2023-07-08T02:51:17;9.43;;;5.97;;
78308;SDS011;67566;42.022;21.356;2023-07-08T02:53:42;8.35;;;6.38;;
78308;SDS011;67566;42.022;21.356;2023-07-08T02:56:08;8.95;;;6.07;;
78308;SDS011;67566;42.022;21.356;2023-07-08T02:58:33;8.18;;;6.60;;
78308;SDS011;67566;42.022;21.356;2023-07-08T03:01:00;12.38;;;7.13;;
78308;SDS011;67566;42.022;21.356;2023-07-08T03:03:26;10.77;;;7.60;;
78308;SDS011;67566;42.022;21.356;2023-07-08T03:08:26;12.95;;;7.13;;
78308;SDS011;67566;42.022;21.356;2023-07-08T03:10:59;14.98;;;7.15;;
78308;SDS011;67566;42.022;21.356;2023-07-08T03:13:27;9.10;;;7.10;;
78308;SDS011;67566;42.022;21.356;2023-07-08T03:15:53;12.55;;;7.10;;
78308;SDS011;67566;42.022;21.356;2023-07-08T03:18:22;13.95;;;6.88;;
78308;SDS011;67566;42.022;21.356;2023-07-08T03:20:52;10.32;;;6.13;;
78308;SDS011;67566;42.022;21.356;2023-07-08T03:23:18;10.88;;;6.38;;
78308;SDS011;67566;42.022;21.356;2023-07-08T03:25:44;11.98;;;7.18;;
78308;SDS011;67566;42.022;21.356;2023-07-08T03:28:09;7.38;;;5.45;;
78308;SDS011;67566;42.022;21.356;2023-07-08T03:30:39;10.80;;;7.18;;
78308;SDS011;67566;42.022;21.356;2023-07-08T03:33:04;11.55;;;7.00;;
78308;SDS011;67566;42.022;21.356;2023-07-08T03:35:30;9.40;;;7.38;;
78308;SDS011;67566;42.022;21.356;2023-07-08T03:37:56;11.20;;;7.90;;
78308;SDS011;67566;42.022;21.356;2023-07-08T03:40:21;11.82;;;7.32;;
78308;SDS011;67566;42.022;21.356;2023-07-08T03:42:47;9.95;;;6.75;;
78308;SDS011;67566;42.022;21.356;2023-07-08T03:45:12;12.07;;;7.18;;
78308;SDS011;67566;42.022;21.356;2023-07-08T03:47:38;10.82;;;7.78;;
78308;SDS011;67566;42.022;21.356;2023-07-08T03:50:03;10.55;;;7.50;;
78308;SDS011;67566;42.022;21.356;2023-07-08T03:52:29;9.77;;;7.50;;
78308;SDS011;67566;42.022;21.356;2023-07-08T03:54:55;13.18;;;8.32;;
78308;SDS011;67566;42.022;21.356;2023-07-08T03:57:21;13.10;;;7.30;;
78308;SDS011;67566;42.022;21.356;2023-07-08T03:59:46;10.45;;;7.13;;
78308;SDS011;67566;42.022;21.356;2023-07-08T04:02:12;10.52;;;7.65;;
78308;SDS011;67566;42.022;21.356;2023-07-08T04:04:38;10.60;;;7.43;;
78308;SDS011;67566;42.022;21.356;2023-07-08T04:07:04;11.90;;;7.72;;
78308;SDS011;67566;42.022;21.356;2023-07-08T04:09:30;10.00;;;6.80;;
78308;SDS011;67566;42.022;21.356;2023-07-08T04:11:56;9.40;;;7.25;;
78308;SDS011;67566;42.022;21.356;2023-07-08T04:14:22;15.25;;;7.80;;
78308;SDS011;67566;42.022;21.356;2023-07-08T04:16:50;10.07;;;7.15;;
78308;SDS011;67566;42.022;21.356;2023-07-08T04:19:18;12.27;;;7.90;;
78308;SDS011;67566;42.022;21.356;2023-07-08T04:21:44;10.98;;;7.13;;
78308;SDS011;67566;42.022;21.356;2023-07-08T04:24:10;9.98;;;7.43;;
78308;SDS011;67566;42.022;21.356;2023-07-08T04:26:40;12.68;;;7.80;;
78308;SDS011;67566;42.022;21.356;2023-07-08T04:29:12;12.15;;;7.60;;
78308;SDS011;67566;42.022;21.356;2023-07-08T04:31:39;11.55;;;7.43;;
78308;SDS011;67566;42.022;21.356;2023-07-08T04:34:06;9.40;;;7.38;;
78308;SDS011;67566;42.022;21.356;2023-07-08T04:36:32;9.60;;;7.35;;
78308;SDS011;67566;42.022;21.356;2023-07-08T04:38:59;9.60;;;6.65;;
78308;SDS011;67566;42.022;21.356;2023-07-08T04:41:25;9.98;;;6.90;;
78308;SDS011;67566;42.022;21.356;2023-07-08T04:43:51;8.98;;;7.18;;
78308;SDS011;67566;42.022;21.356;2023-07-08T04:49:22;8.57;;;5.78;;
78308;SDS011;67566;42.022;21.356;2023-07-08T04:51:49;12.10;;;7.35;;
78308;SDS011;67566;42.022;21.356;2023-07-08T04:54:16;11.18;;;7.38;;
78308;SDS011;67566;42.022;21.356;2023-07-08T04:56:43;8.73;;;6.05;;
78308;SDS011;67566;42.022;21.356;2023-07-08T04:59:11;9.75;;;6.75;;
78308;SDS011;67566;42.022;21.356;2023-07-08T05:01:38;11.52;;;6.57;;
78308;SDS011;67566;42.022;21.356;2023-07-08T05:04:05;8.40;;;5.93;;
78308;SDS011;67566;42.022;21.356;2023-07-08T05:06:31;8.32;;;6.55;;
78308;SDS011;67566;42.022;21.356;2023-07-08T05:08:58;8.40;;;5.75;;
78308;SDS011;67566;42.022;21.356;2023-07-08T05:11:24;9.25;;;6.22;;
78308;SDS011;67566;42.022;21.356;2023-07-08T05:13:50;8.18;;;6.28;;
78308;SDS011;67566;42.022;21.356;2023-07-08T05:16:16;8.30;;;6.28;;
78308;SDS011;67566;42.022;21.356;2023-07-08T05:18:41;8.45;;;6.18;;
78308;SDS011;67566;42.022;21.356;2023-07-08T05:21:08;13.13;;;6.60;;
78308;SDS011;67566;42.022;21.356;2023-07-08T05:23:34;9.00;;;6.43;;
78308;SDS011;67566;42.022;21.356;2023-07-08T05:26:01;11.10;;;6.10;;
78308;SDS011;67566;42.022;21.356;2023-07-08T05:28:27;9.90;;;7.10;;
78308;SDS011;67566;42.022;21.356;2023-07-08T05:30:53;10.15;;;6.80;;
78308;SDS011;67566;42.022;21.356;2023-07-08T05:33:23;10.63;;;6.47;;
78308;SDS011;67566;42.022;21.356;2023-07-08T05:35:50;10.18;;;6.53;;
78308;SDS011;67566;42.022;21.356;2023-07-08T05:38:15;9.13;;;6.32;;
78308;SDS011;67566;42.022;21.356;2023-07-08T05:40:41;7.78;;;5.53;;
78308;SDS011;67566;42.022;21.356;2023-07-08T05:43:07;8.95;;;6.63;;
78308;SDS011;67566;42.022;21.356;2023-07-08T05:45:33;8.48;;;6.05;;
78308;SDS011;67566;42.022;21.356;2023-07-08T05:48:00;12.05;;;7.05;;
78308;SDS011;67566;42.022;21.356;2023-07-08T05:50:27;8.40;;;7.18;;
78308;SDS011;67566;42.022;21.356;2023-07-08T05:52:52;10.98;;;7.55;;
78308;SDS011;67566;42.022;21.356;2023-07-08T05:55:18;9.10;;;7.10;;
78308;SDS011;67566;42.022;21.356;2023-07-08T05:57:43;9.73;;;7.35;;
78308;SDS011;67566;42.022;21.356;2023-07-08T06:00:09;10.77;;;6.65;;
78308;SDS011;67566;42.022;21.356;2023-07-08T06:02:36;12.07;;;7.70;;
78308;SDS011;67566;42.022;21.356;2023-07-08T06:05:02;11.02;;;8.18;;
78308;SDS011;67566;42.022;21.356;2023-07-08T06:07:27;11.80;;;7.50;;
78308;SDS011;67566;42.022;21.356;2023-07-08T06:09:53;8.80;;;6.78;;
78308;SDS011;67566;42.022;21.356;2023-07-08T06:12:21;9.52;;;6.90;;
78308;SDS011;67566;42.022;21.356;2023-07-08T06:14:46;9.27;;;7.47;;
78308;SDS011;67566;42.022;21.356;2023-07-08T06:17:12;9.38;;;7.03;;
78308;SDS011;67566;42.022;21.356;2023-07-08T06:19:37;11.48;;;7.57;;
78308;SDS011;67566;42.022;21.356;2023-07-08T06:22:03;10.13;;;6.78;;
78308;SDS011;67566;42.022;21.356;2023-07-08T06:24:29;12.23;;;7.55;;
78308;SDS011;67566;42.022;21.356;2023-07-08T06:26:54;9.32;;;7.97;;
78308;SDS011;67566;42.022;21.356;2023-07-08T06:29:20;7.93;;;6.20;;
78308;SDS011;67566;42.022;21.356;2023-07-08T06:31:45;10.55;;;7.32;;
78308;SDS011;67566;42.022;21.356;2023-07-08T06:34:11;8.60;;;7.22;;
78308;SDS011;67566;42.022;21.356;2023-07-08T06:36:36;9.40;;;6.72;;
78308;SDS011;67566;42.022;21.356;2023-07-08T06:39:02;8.52;;;6.75;;
78308;SDS011;67566;42.022;21.356;2023-07-08T06:41:28;9.60;;;6.53;;
78308;SDS011;67566;42.022;21.356;2023-07-08T06:43:55;8.35;;;6.53;;
78308;SDS011;67566;42.022;21.356;2023-07-08T06:46:20;9.13;;;6.75;;
78308;SDS011;67566;42.022;21.356;2023-07-08T06:48:45;10.90;;;7.53;;
78308;SDS011;67566;42.022;21.356;2023-07-08T06:51:11;8.73;;;6.80;;
78308;SDS011;67566;42.022;21.356;2023-07-08T06:53:36;12.32;;;6.72;;
78308;SDS011;67566;42.022;21.356;2023-07-08T06:56:02;10.43;;;7.30;;
78308;SDS011;67566;42.022;21.356;2023-07-08T06:58:28;12.05;;;8.00;;
78308;SDS011;67566;42.022;21.356;2023-07-08T07:00:53;11.98;;;7.60;;
78308;SDS011;67566;42.022;21.356;2023-07-08T07:03:19;10.35;;;7.75;;
78308;SDS011;67566;42.022;21.356;2023-07-08T07:05:44;8.60;;;6.60;;
78308;SDS011;67566;42.022;21.356;2023-07-08T07:08:10;12.43;;;7.47;;
78308;SDS011;67566;42.022;21.356;2023-07-08T07:10:36;10.45;;;7.60;;
78308;SDS011;67566;42.022;21.356;2023-07-08T07:13:01;9.23;;;7.30;;
78308;SDS011;67566;42.022;21.356;2023-07-08T07:15:27;11.35;;;7.47;;
78308;SDS011;67566;42.022;21.356;2023-07-08T07:17:55;9.82;;;6.70;;
78308;SDS011;67566;42.022;21.356;2023-07-08T07:20:21;8.45;;;6.72;;
78308;SDS011;67566;42.022;21.356;2023-07-08T07:22:46;9.48;;;7.53;;
78308;SDS011;67566;42.022;21.356;2023-07-08T07:25:12;8.90;;;6.97;;
78308;SDS011;67566;42.022;21.356;2023-07-08T07:27:37;12.75;;;7.95;;
78308;SDS011;67566;42.022;21.356;2023-07-08T07:30:03;9.48;;;7.47;;
78308;SDS011;67566;42.022;21.356;2023-07-08T07:32:29;11.15;;;6.53;;
78308;SDS011;67566;42.022;21.356;2023-07-08T07:34:54;8.60;;;6.15;;
78308;SDS011;67566;42.022;21.356;2023-07-08T07:37:22;7.97;;;5.75;;
78308;SDS011;67566;42.022;21.356;2023-07-08T07:39:48;9.00;;;6.47;;
78308;SDS011;67566;42.022;21.356;2023-07-08T07:42:14;11.25;;;5.93;;
78308;SDS011;67566;42.022;21.356;2023-07-08T07:44:40;8.10;;;5.97;;
78308;SDS011;67566;42.022;21.356;2023-07-08T07:47:06;9.00;;;5.93;;
78308;SDS011;67566;42.022;21.356;2023-07-08T07:49:33;8.07;;;5.75;;
78308;SDS011;67566;42.022;21.356;2023-07-08T07:51:59;7.18;;;4.88;;
78308;SDS011;67566;42.022;21.356;2023-07-08T07:54:24;7.03;;;5.25;;
78308;SDS011;67566;42.022;21.356;2023-07-08T07:56:50;7.93;;;5.53;;
78308;SDS011;67566;42.022;21.356;2023-07-08T07:59:16;7.25;;;5.35;;
78308;SDS011;67566;42.022;21.356;2023-07-08T08:01:41;9.57;;;6.22;;
78308;SDS011;67566;42.022;21.356;2023-07-08T08:04:07;9.90;;;5.32;;
78308;SDS011;67566;42.022;21.356;2023-07-08T08:06:34;8.85;;;5.97;;
78308;SDS011;67566;42.022;21.356;2023-07-08T08:09:00;11.00;;;5.00;;
78308;SDS011;67566;42.022;21.356;2023-07-08T08:11:25;8.07;;;5.35;;
78308;SDS011;67566;42.022;21.356;2023-07-08T08:13:51;8.75;;;4.68;;
78308;SDS011;67566;42.022;21.356;2023-07-08T08:16:18;7.88;;;5.43;;
78308;SDS011;67566;42.022;21.356;2023-07-08T08:18:43;6.65;;;4.97;;
78308;SDS011;67566;42.022;21.356;2023-07-08T08:21:09;8.35;;;5.30;;
78308;SDS011;67566;42.022;21.356;2023-07-08T08:23:34;8.57;;;4.70;;
78308;SDS011;67566;42.022;21.356;2023-07-08T08:26:00;7.07;;;5.22;;
78308;SDS011;67566;42.022;21.356;2023-07-08T08:28:25;7.72;;;4.90;;
78308;SDS011;67566;42.022;21.356;2023-07-08T08:30:51;7.28;;;5.07;;
78308;SDS011;67566;42.022;21.356;2023-07-08T08:33:17;6.97;;;5.10;;
78308;SDS011;67566;42.022;21.356;2023-07-08T08:35:44;8.52;;;5.18;;
78308;SDS011;67566;42.022;21.356;2023-07-08T08:38:10;9.35;;;5.70;;
78308;SDS011;67566;42.022;21.356;2023-07-08T08:40:36;9.35;;;5.28;;
78308;SDS011;67566;42.022;21.356;2023-07-08T08:43:09;8.88;;;5.50;;
78308;SDS011;67566;42.022;21.356;2023-07-08T08:45:43;7.57;;;5.55;;
78308;SDS011;67566;42.022;21.356;2023-07-08T08:48:16;9.50;;;6.25;;
78308;SDS011;67566;42.022;21.356;2023-07-08T08:50:50;10.02;;;6.43;;
78308;SDS011;67566;42.022;21.356;2023-07-08T08:53:18;14.85;;;5.72;;
78308;SDS011;67566;42.022;21.356;2023-07-08T08:55:50;8.68;;;5.75;;
78308;SDS011;67566;42.022;21.356;2023-07-08T09:01:10;7.93;;;5.82;;
78308;SDS011;67566;42.022;21.356;2023-07-08T09:03:55;7.65;;;6.10;;
78308;SDS011;67566;42.022;21.356;2023-07-08T09:06:25;8.75;;;6.10;;
78308;SDS011;67566;42.022;21.356;2023-07-08T09:14:15;12.35;;;5.80;;
78308;SDS011;67566;42.022;21.356;2023-07-08T09:20:06;11.43;;;5.63;;
78308;SDS011;67566;42.022;21.356;2023-07-08T09:23:15;7.70;;;5.57;;
78308;SDS011;67566;42.022;21.356;2023-07-08T09:26:01;9.82;;;6.07;;
78308;SDS011;67566;42.022;21.356;2023-07-08T09:28:39;10.10;;;6.40;;
78308;SDS011;67566;42.022;21.356;2023-07-08T09:31:07;9.30;;;6.40;;
78308;SDS011;67566;42.022;21.356;2023-07-08T09:33:42;10.20;;;6.10;;
78308;SDS011;67566;42.022;21.356;2023-07-08T09:36:18;7.18;;;5.35;;
78308;SDS011;67566;42.022;21.356;2023-07-08T09:38:47;10.13;;;6.40;;
78308;SDS011;67566;42.022;21.356;2023-07-08T09:41:17;8.13;;;6.05;;
78308;SDS011;67566;42.022;21.356;2023-07-08T09:44:00;13.63;;;6.95;;
78308;SDS011;67566;42.022;21.356;2023-07-08T09:46:29;8.68;;;5.97;;
78308;SDS011;67566;42.022;21.356;2023-07-08T09:49:09;8.75;;;5.75;;
78308;SDS011;67566;42.022;21.356;2023-07-08T09:51:41;8.25;;;5.80;;
78308;SDS011;67566;42.022;21.356;2023-07-08T09:54:07;8.52;;;5.78;;
78308;SDS011;67566;42.022;21.356;2023-07-08T09:56:33;9.05;;;6.15;;
78308;SDS011;67566;42.022;21.356;2023-07-08T09:59:00;8.80;;;5.82;;
78308;SDS011;67566;42.022;21.356;2023-07-08T10:01:26;9.07;;;6.32;;
78308;SDS011;67566;42.022;21.356;2023-07-08T10:03:57;8.85;;;5.72;;
78308;SDS011;67566;42.022;21.356;2023-07-08T10:06:28;8.38;;;5.75;;
78308;SDS011;67566;42.022;21.356;2023-07-08T10:09:00;10.02;;;5.95;;
78308;SDS011;67566;42.022;21.356;2023-07-08T10:11:30;10.05;;;6.32;;
78308;SDS011;67566;42.022;21.356;2023-07-08T10:14:04;9.15;;;6.07;;
78308;SDS011;67566;42.022;21.356;2023-07-08T10:16:35;8.98;;;5.85;;
78308;SDS011;67566;42.022;21.356;2023-07-08T10:19:01;11.23;;;5.85;;
78308;SDS011;67566;42.022;21.356;2023-07-08T10:24:38;8.43;;;6.05;;
78308;SDS011;67566;42.022;21.356;2023-07-08T10:38:40;8.82;;;5.70;;
78308;SDS011;67566;42.022;21.356;2023-07-08T10:58:05;9.15;;;5.28;;
78308;SDS011;67566;42.022;21.356;2023-07-08T11:06:14;6.70;;;5.13;;
78308;SDS011;67566;42.022;21.356;2023-07-08T11:08:48;11.85;;;5.70;;
78308;SDS011;67566;42.022;21.356;2023-07-08T11:13:53;9.57;;;5.28;;
78308;SDS011;67566;42.022;21.356;2023-07-08T11:16:33;7.82;;;4.85;;
78308;SDS011;67566;42.022;21.356;2023-07-08T11:19:09;7.53;;;5.10;;
78308;SDS011;67566;42.022;21.356;2023-07-08T11:21:45;10.05;;;5.40;;
78308;SDS011;67566;42.022;21.356;2023-07-08T11:24:27;10.02;;;4.95;;
78308;SDS011;67566;42.022;21.356;2023-07-08T11:27:20;7.68;;;5.25;;
78308;SDS011;67566;42.022;21.356;2023-07-08T11:29:56;6.93;;;4.50;;
78308;SDS011;67566;42.022;21.356;2023-07-08T11:32:27;9.18;;;5.32;;
78308;SDS011;67566;42.022;21.356;2023-07-08T11:34:56;11.23;;;5.78;;
78308;SDS011;67566;42.022;21.356;2023-07-08T11:37:25;10.05;;;5.65;;
78308;SDS011;67566;42.022;21.356;2023-07-08T11:42:40;11.18;;;5.90;;
78308;SDS011;67566;42.022;21.356;2023-07-08T11:45:15;10.07;;;5.40;;
78308;SDS011;67566;42.022;21.356;2023-07-08T11:47:48;7.65;;;5.15;;
78308;SDS011;67566;42.022;21.356;2023-07-08T11:53:03;9.88;;;5.90;;
78308;SDS011;67566;42.022;21.356;2023-07-08T11:55:37;9.88;;;5.10;;
78308;SDS011;67566;42.022;21.356;2023-07-08T11:58:05;9.02;;;5.13;;
78308;SDS011;67566;42.022;21.356;2023-07-08T12:00:32;9.18;;;5.60;;
78308;SDS011;67566;42.022;21.356;2023-07-08T12:03:03;8.07;;;5.13;;
78308;SDS011;67566;42.022;21.356;2023-07-08T12:05:43;8.90;;;5.28;;
78308;SDS011;67566;42.022;21.356;2023-07-08T12:08:15;11.10;;;5.95;;
78308;SDS011;67566;42.022;21.356;2023-07-08T12:10:48;12.90;;;5.53;;
78308;SDS011;67566;42.022;21.356;2023-07-08T12:13:19;8.23;;;5.35;;
78308;SDS011;67566;42.022;21.356;2023-07-08T12:15:47;10.18;;;6.10;;
78308;SDS011;67566;42.022;21.356;2023-07-08T12:18:20;8.25;;;5.03;;
78308;SDS011;67566;42.022;21.356;2023-07-08T12:20:54;7.97;;;5.50;;
78308;SDS011;67566;42.022;21.356;2023-07-08T12:23:22;8.68;;;5.03;;
78308;SDS011;67566;42.022;21.356;2023-07-08T12:25:49;9.70;;;5.25;;
78308;SDS011;67566;42.022;21.356;2023-07-08T12:28:15;7.03;;;5.38;;
78308;SDS011;67566;42.022;21.356;2023-07-08T12:30:41;8.77;;;5.43;;
78308;SDS011;67566;42.022;21.356;2023-07-08T12:33:19;12.23;;;6.15;;
78308;SDS011;67566;42.022;21.356;2023-07-08T12:35:50;7.97;;;5.03;;
78308;SDS011;67566;42.022;21.356;2023-07-08T12:40:48;9.00;;;5.25;;
78308;SDS011;67566;42.022;21.356;2023-07-08T12:43:15;8.00;;;5.25;;
78308;SDS011;67566;42.022;21.356;2023-07-08T12:45:42;6.90;;;5.32;;
78308;SDS011;67566;42.022;21.356;2023-07-08T12:48:08;7.85;;;5.63;;
78308;SDS011;67566;42.022;21.356;2023-07-08T12:50:35;9.63;;;5.75;;
78308;SDS011;67566;42.022;21.356;2023-07-08T12:53:00;7.65;;;5.80;;
78308;SDS011;67566;42.022;21.356;2023-07-08T12:55:34;11.25;;;5.45;;
78308;SDS011;67566;42.022;21.356;2023-07-08T12:58:04;8.32;;;6.00;;
78308;SDS011;67566;42.022;21.356;2023-07-08T13:00:32;8.95;;;5.50;;
78308;SDS011;67566;42.022;21.356;2023-07-08T13:03:17;6.85;;;5.32;;
78308;SDS011;67566;42.022;21.356;2023-07-08T13:05:47;7.68;;;5.43;;
78308;SDS011;67566;42.022;21.356;2023-07-08T13:08:14;11.85;;;6.70;;
78308;SDS011;67566;42.022;21.356;2023-07-08T13:10:42;10.30;;;6.10;;
78308;SDS011;67566;42.022;21.356;2023-07-08T13:13:12;8.57;;;5.45;;
78308;SDS011;67566;42.022;21.356;2023-07-08T13:15:43;12.52;;;5.78;;
78308;SDS011;67566;42.022;21.356;2023-07-08T13:18:16;9.45;;;5.80;;
78308;SDS011;67566;42.022;21.356;2023-07-08T13:20:53;9.70;;;5.63;;
78308;SDS011;67566;42.022;21.356;2023-07-08T13:23:21;10.88;;;5.90;;
78308;SDS011;67566;42.022;21.356;2023-07-08T13:25:48;8.10;;;6.07;;
78308;SDS011;67566;42.022;21.356;2023-07-08T13:30:58;11.00;;;5.45;;
78308;SDS011;67566;42.022;21.356;2023-07-08T13:33:30;14.52;;;5.75;;
78308;SDS011;67566;42.022;21.356;2023-07-08T13:35:57;10.63;;;6.35;;
78308;SDS011;67566;42.022;21.356;2023-07-08T13:38:25;9.52;;;6.00;;
78308;SDS011;67566;42.022;21.356;2023-07-08T13:40:57;8.85;;;5.22;;
78308;SDS011;67566;42.022;21.356;2023-07-08T13:43:29;7.63;;;5.38;;
78308;SDS011;67566;42.022;21.356;2023-07-08T13:45:59;10.35;;;5.63;;
78308;SDS011;67566;42.022;21.356;2023-07-08T13:48:29;9.88;;;5.28;;
78308;SDS011;67566;42.022;21.356;2023-07-08T13:51:15;9.80;;;5.32;;
78308;SDS011;67566;42.022;21.356;2023-07-08T13:53:45;11.05;;;5.72;;
78308;SDS011;67566;42.022;21.356;2023-07-08T13:58:44;7.97;;;5.13;;
78308;SDS011;67566;42.022;21.356;2023-07-08T14:01:22;9.25;;;5.03;;
78308;SDS011;67566;42.022;21.356;2023-07-08T14:03:50;10.65;;;5.40;;
78308;SDS011;67566;42.022;21.356;2023-07-08T14:06:18;10.13;;;5.63;;
78308;SDS011;67566;42.022;21.356;2023-07-08T14:08:46;8.00;;;5.63;;
78308;SDS011;67566;42.022;21.356;2023-07-08T14:11:12;10.38;;;5.00;;
78308;SDS011;67566;42.022;21.356;2023-07-08T14:13:38;11.13;;;5.47;;
78308;SDS011;67566;42.022;21.356;2023-07-08T14:16:03;13.57;;;5.55;;
78308;SDS011;67566;42.022;21.356;2023-07-08T14:18:42;7.13;;;4.93;;
78308;SDS011;67566;42.022;21.356;2023-07-08T14:21:07;7.85;;;5.20;;
78308;SDS011;67566;42.022;21.356;2023-07-08T14:23:34;7.47;;;4.88;;
78308;SDS011;67566;42.022;21.356;2023-07-08T14:25:59;13.18;;;5.75;;
78308;SDS011;67566;42.022;21.356;2023-07-08T14:28:25;9.32;;;5.30;;
78308;SDS011;67566;42.022;21.356;2023-07-08T14:30:50;9.43;;;5.10;;
78308;SDS011;67566;42.022;21.356;2023-07-08T14:33:16;9.75;;;5.15;;
78308;SDS011;67566;42.022;21.356;2023-07-08T14:35:42;9.07;;;5.35;;
78308;SDS011;67566;42.022;21.356;2023-07-08T14:38:11;8.32;;;5.20;;
78308;SDS011;67566;42.022;21.356;2023-07-08T14:40:38;9.55;;;5.63;;
78308;SDS011;67566;42.022;21.356;2023-07-08T14:45:56;10.50;;;6.25;;
78308;SDS011;67566;42.022;21.356;2023-07-08T14:48:24;10.68;;;5.25;;
78308;SDS011;67566;42.022;21.356;2023-07-08T14:50:52;6.00;;;4.60;;
78308;SDS011;67566;42.022;21.356;2023-07-08T14:53:18;8.73;;;5.03;;
78308;SDS011;67566;42.022;21.356;2023-07-08T14:55:44;8.30;;;5.00;;
78308;SDS011;67566;42.022;21.356;2023-07-08T14:58:17;10.25;;;5.30;;
78308;SDS011;67566;42.022;21.356;2023-07-08T15:00:50;8.57;;;4.70;;
78308;SDS011;67566;42.022;21.356;2023-07-08T15:03:17;6.03;;;4.82;;
78308;SDS011;67566;42.022;21.356;2023-07-08T15:05:42;8.75;;;4.88;;
78308;SDS011;67566;42.022;21.356;2023-07-08T15:08:08;6.65;;;4.20;;
78308;SDS011;67566;42.022;21.356;2023-07-08T15:10:34;6.60;;;4.10;;
78308;SDS011;67566;42.022;21.356;2023-07-08T15:13:01;11.85;;;4.75;;
78308;SDS011;67566;42.022;21.356;2023-07-08T15:15:29;6.97;;;4.32;;
78308;SDS011;67566;42.022;21.356;2023-07-08T15:17:59;9.05;;;4.18;;
78308;SDS011;67566;42.022;21.356;2023-07-08T15:20:26;10.88;;;4.95;;
78308;SDS011;67566;42.022;21.356;2023-07-08T15:22:52;9.32;;;5.40;;
78308;SDS011;67566;42.022;21.356;2023-07-08T15:25:17;7.47;;;4.32;;
78308;SDS011;67566;42.022;21.356;2023-07-08T15:27:48;6.30;;;4.10;;
78308;SDS011;67566;42.022;21.356;2023-07-08T15:30:22;6.93;;;4.13;;
78308;SDS011;67566;42.022;21.356;2023-07-08T15:32:49;7.07;;;4.47;;
78308;SDS011;67566;42.022;21.356;2023-07-08T15:35:37;10.43;;;5.03;;
78308;SDS011;67566;42.022;21.356;2023-07-08T15:38:02;6.32;;;4.65;;
78308;SDS011;67566;42.022;21.356;2023-07-08T15:40:30;8.90;;;4.55;;
78308;SDS011;67566;42.022;21.356;2023-07-08T15:43:03;6.57;;;4.50;;
78308;SDS011;67566;42.022;21.356;2023-07-08T15:45:32;10.82;;;5.35;;
78308;SDS011;67566;42.022;21.356;2023-07-08T15:48:03;8.10;;;4.35;;
78308;SDS011;67566;42.022;21.356;2023-07-08T15:50:36;9.95;;;4.65;;
78308;SDS011;67566;42.022;21.356;2023-07-08T15:53:02;8.60;;;4.60;;
78308;SDS011;67566;42.022;21.356;2023-07-08T15:55:31;8.25;;;4.60;;
78308;SDS011;67566;42.022;21.356;2023-07-08T15:58:14;7.47;;;4.40;;